sensor_id;sensor_type;location;lat;lon;timestamp;P1;durP1;ratioP1;P2;durP2;ratioP2
18286;SDS011;9269;50.838;12.094;2022-07-22T00:00:05;5.57;;;5.07;;
18286;SDS011;9269;50.838;12.094;2022-07-22T00:02:35;5.20;;;4.73;;
18286;SDS011;9269;50.838;12.094;2022-07-22T00:05:04;5.73;;;5.13;;
18286;SDS011;9269;50.838;12.094;2022-07-22T00:07:33;5.30;;;4.80;;
18286;SDS011;9269;50.838;12.094;2022-07-22T00:10:02;4.93;;;4.50;;
18286;SDS011;9269;50.838;12.094;2022-07-22T00:12:31;5.47;;;4.97;;
18286;SDS011;9269;50.838;12.094;2022-07-22T00:15:00;4.87;;;4.47;;
18286;SDS011;9269;50.838;12.094;2022-07-22T00:17:29;4.83;;;4.43;;
18286;SDS011;9269;50.838;12.094;2022-07-22T00:19:57;5.00;;;4.60;;
18286;SDS011;9269;50.838;12.094;2022-07-22T00:22:26;5.30;;;4.80;;
18286;SDS011;9269;50.838;12.094;2022-07-22T00:24:54;5.30;;;4.90;;
18286;SDS011;9269;50.838;12.094;2022-07-22T00:27:23;4.83;;;4.43;;
18286;SDS011;9269;50.838;12.094;2022-07-22T00:29:51;4.60;;;4.30;;
18286;SDS011;9269;50.838;12.094;2022-07-22T00:32:21;6.10;;;4.50;;
18286;SDS011;9269;50.838;12.094;2022-07-22T00:34:49;5.03;;;4.53;;
18286;SDS011;9269;50.838;12.094;2022-07-22T00:37:18;4.83;;;4.43;;
18286;SDS011;9269;50.838;12.094;2022-07-22T00:39:46;7.13;;;4.63;;
18286;SDS011;9269;50.838;12.094;2022-07-22T00:42:15;4.83;;;4.43;;
18286;SDS011;9269;50.838;12.094;2022-07-22T00:44:49;5.00;;;4.40;;
18286;SDS011;9269;50.838;12.094;2022-07-22T00:47:17;4.77;;;4.37;;
18286;SDS011;9269;50.838;12.094;2022-07-22T00:49:47;5.00;;;4.53;;
18286;SDS011;9269;50.838;12.094;2022-07-22T00:52:15;5.27;;;4.70;;
18286;SDS011;9269;50.838;12.094;2022-07-22T00:54:45;5.23;;;4.50;;
18286;SDS011;9269;50.838;12.094;2022-07-22T00:57:14;5.17;;;4.60;;
18286;SDS011;9269;50.838;12.094;2022-07-22T00:59:42;5.30;;;4.80;;
18286;SDS011;9269;50.838;12.094;2022-07-22T01:02:10;4.70;;;4.27;;
18286;SDS011;9269;50.838;12.094;2022-07-22T01:04:39;5.17;;;4.77;;
18286;SDS011;9269;50.838;12.094;2022-07-22T01:07:09;4.83;;;4.43;;
18286;SDS011;9269;50.838;12.094;2022-07-22T01:09:41;4.97;;;4.40;;
18286;SDS011;9269;50.838;12.094;2022-07-22T01:12:10;5.10;;;4.60;;
18286;SDS011;9269;50.838;12.094;2022-07-22T01:14:39;5.03;;;4.53;;
18286;SDS011;9269;50.838;12.094;2022-07-22T01:17:08;5.10;;;4.60;;
18286;SDS011;9269;50.838;12.094;2022-07-22T01:19:36;6.17;;;4.83;;
18286;SDS011;9269;50.838;12.094;2022-07-22T01:22:06;6.00;;;5.40;;
18286;SDS011;9269;50.838;12.094;2022-07-22T01:24:35;6.87;;;5.33;;
18286;SDS011;9269;50.838;12.094;2022-07-22T01:27:03;6.97;;;5.40;;
18286;SDS011;9269;50.838;12.094;2022-07-22T01:29:31;7.13;;;5.67;;
18286;SDS011;9269;50.838;12.094;2022-07-22T01:32:00;8.17;;;5.63;;
18286;SDS011;9269;50.838;12.094;2022-07-22T01:34:28;7.10;;;6.30;;
18286;SDS011;9269;50.838;12.094;2022-07-22T01:36:57;8.30;;;6.13;;
18286;SDS011;9269;50.838;12.094;2022-07-22T01:39:26;8.10;;;6.53;;
18286;SDS011;9269;50.838;12.094;2022-07-22T01:41:55;8.57;;;6.60;;
18286;SDS011;9269;50.838;12.094;2022-07-22T01:44:23;9.90;;;6.50;;
18286;SDS011;9269;50.838;12.094;2022-07-22T01:46:52;10.07;;;5.90;;
18286;SDS011;9269;50.838;12.094;2022-07-22T01:49:21;9.53;;;6.40;;
18286;SDS011;9269;50.838;12.094;2022-07-22T01:51:49;7.77;;;6.20;;
18286;SDS011;9269;50.838;12.094;2022-07-22T01:54:17;7.80;;;6.10;;
18286;SDS011;9269;50.838;12.094;2022-07-22T01:56:47;7.27;;;6.07;;
18286;SDS011;9269;50.838;12.094;2022-07-22T01:59:16;10.33;;;5.90;;
18286;SDS011;9269;50.838;12.094;2022-07-22T02:01:44;7.23;;;6.17;;
18286;SDS011;9269;50.838;12.094;2022-07-22T02:04:13;9.53;;;6.20;;
18286;SDS011;9269;50.838;12.094;2022-07-22T02:06:41;7.73;;;6.43;;
18286;SDS011;9269;50.838;12.094;2022-07-22T02:09:10;9.50;;;7.17;;
18286;SDS011;9269;50.838;12.094;2022-07-22T02:11:39;11.43;;;7.37;;
18286;SDS011;9269;50.838;12.094;2022-07-22T02:14:08;9.77;;;7.00;;
18286;SDS011;9269;50.838;12.094;2022-07-22T02:16:37;11.47;;;7.77;;
18286;SDS011;9269;50.838;12.094;2022-07-22T02:19:05;9.03;;;7.00;;
18286;SDS011;9269;50.838;12.094;2022-07-22T02:21:33;8.20;;;6.83;;
18286;SDS011;9269;50.838;12.094;2022-07-22T02:24:03;11.03;;;7.07;;
18286;SDS011;9269;50.838;12.094;2022-07-22T02:26:32;8.00;;;7.10;;
18286;SDS011;9269;50.838;12.094;2022-07-22T02:29:01;10.23;;;7.70;;
18286;SDS011;9269;50.838;12.094;2022-07-22T02:31:32;8.87;;;7.53;;
18286;SDS011;9269;50.838;12.094;2022-07-22T02:34:00;10.53;;;7.70;;
18286;SDS011;9269;50.838;12.094;2022-07-22T02:36:29;11.90;;;7.63;;
18286;SDS011;9269;50.838;12.094;2022-07-22T02:38:57;10.20;;;8.87;;
18286;SDS011;9269;50.838;12.094;2022-07-22T02:41:26;9.57;;;8.47;;
18286;SDS011;9269;50.838;12.094;2022-07-22T02:43:55;15.40;;;11.63;;
18286;SDS011;9269;50.838;12.094;2022-07-22T02:46:24;12.90;;;10.60;;
18286;SDS011;9269;50.838;12.094;2022-07-22T02:48:57;15.27;;;12.53;;
18286;SDS011;9269;50.838;12.094;2022-07-22T02:51:26;16.90;;;13.57;;
18286;SDS011;9269;50.838;12.094;2022-07-22T02:53:54;16.47;;;13.73;;
18286;SDS011;9269;50.838;12.094;2022-07-22T02:56:23;17.03;;;12.80;;
18286;SDS011;9269;50.838;12.094;2022-07-22T02:58:51;17.93;;;13.93;;
18286;SDS011;9269;50.838;12.094;2022-07-22T03:01:21;15.33;;;11.40;;
18286;SDS011;9269;50.838;12.094;2022-07-22T03:03:49;11.83;;;10.17;;
18286;SDS011;9269;50.838;12.094;2022-07-22T03:06:19;10.57;;;9.47;;
18286;SDS011;9269;50.838;12.094;2022-07-22T03:08:48;9.97;;;8.97;;
18286;SDS011;9269;50.838;12.094;2022-07-22T03:11:17;10.37;;;9.27;;
18286;SDS011;9269;50.838;12.094;2022-07-22T03:13:45;13.00;;;9.20;;
18286;SDS011;9269;50.838;12.094;2022-07-22T03:16:13;11.87;;;8.73;;
18286;SDS011;9269;50.838;12.094;2022-07-22T03:18:42;9.50;;;8.50;;
18286;SDS011;9269;50.838;12.094;2022-07-22T03:21:10;10.33;;;8.30;;
18286;SDS011;9269;50.838;12.094;2022-07-22T03:23:40;10.23;;;9.07;;
18286;SDS011;9269;50.838;12.094;2022-07-22T03:26:08;10.97;;;8.67;;
18286;SDS011;9269;50.838;12.094;2022-07-22T03:28:37;11.17;;;8.70;;
18286;SDS011;9269;50.838;12.094;2022-07-22T03:31:06;9.30;;;8.30;;
18286;SDS011;9269;50.838;12.094;2022-07-22T03:33:36;8.00;;;7.10;;
18286;SDS011;9269;50.838;12.094;2022-07-22T03:36:05;7.93;;;7.23;;
18286;SDS011;9269;50.838;12.094;2022-07-22T03:38:34;7.87;;;7.07;;
18286;SDS011;9269;50.838;12.094;2022-07-22T03:41:04;7.77;;;6.97;;
18286;SDS011;9269;50.838;12.094;2022-07-22T03:43:32;7.67;;;6.97;;
18286;SDS011;9269;50.838;12.094;2022-07-22T03:46:00;8.10;;;7.30;;
18286;SDS011;9269;50.838;12.094;2022-07-22T03:48:29;8.67;;;7.67;;
18286;SDS011;9269;50.838;12.094;2022-07-22T03:50:57;8.87;;;7.43;;
18286;SDS011;9269;50.838;12.094;2022-07-22T03:53:25;8.90;;;8.17;;
18286;SDS011;9269;50.838;12.094;2022-07-22T03:55:54;8.57;;;7.87;;
18286;SDS011;9269;50.838;12.094;2022-07-22T03:58:24;8.90;;;8.10;;
18286;SDS011;9269;50.838;12.094;2022-07-22T04:00:54;9.23;;;8.30;;
18286;SDS011;9269;50.838;12.094;2022-07-22T04:03:23;9.80;;;8.23;;
18286;SDS011;9269;50.838;12.094;2022-07-22T04:05:51;8.33;;;7.63;;
18286;SDS011;9269;50.838;12.094;2022-07-22T04:08:19;9.17;;;8.23;;
18286;SDS011;9269;50.838;12.094;2022-07-22T04:10:48;8.73;;;7.83;;
18286;SDS011;9269;50.838;12.094;2022-07-22T04:13:16;9.70;;;7.93;;
18286;SDS011;9269;50.838;12.094;2022-07-22T04:15:46;9.20;;;8.40;;
18286;SDS011;9269;50.838;12.094;2022-07-22T04:18:14;8.93;;;8.13;;
18286;SDS011;9269;50.838;12.094;2022-07-22T04:20:44;8.70;;;7.90;;
18286;SDS011;9269;50.838;12.094;2022-07-22T04:23:13;9.17;;;8.27;;
18286;SDS011;9269;50.838;12.094;2022-07-22T04:25:47;9.47;;;8.57;;
18286;SDS011;9269;50.838;12.094;2022-07-22T04:28:16;9.17;;;8.40;;
18286;SDS011;9269;50.838;12.094;2022-07-22T04:30:46;8.27;;;7.43;;
18286;SDS011;9269;50.838;12.094;2022-07-22T04:33:14;9.27;;;8.37;;
18286;SDS011;9269;50.838;12.094;2022-07-22T04:35:43;8.27;;;7.50;;
18286;SDS011;9269;50.838;12.094;2022-07-22T04:38:11;7.53;;;6.87;;
18286;SDS011;9269;50.838;12.094;2022-07-22T04:40:39;9.03;;;8.10;;
18286;SDS011;9269;50.838;12.094;2022-07-22T04:43:08;10.87;;;8.00;;
18286;SDS011;9269;50.838;12.094;2022-07-22T04:45:36;8.13;;;7.03;;
18286;SDS011;9269;50.838;12.094;2022-07-22T04:48:06;8.73;;;7.93;;
18286;SDS011;9269;50.838;12.094;2022-07-22T04:50:35;8.77;;;7.97;;
18286;SDS011;9269;50.838;12.094;2022-07-22T04:53:03;11.27;;;9.77;;
18286;SDS011;9269;50.838;12.094;2022-07-22T04:55:32;12.80;;;11.60;;
18286;SDS011;9269;50.838;12.094;2022-07-22T04:58:01;10.60;;;9.43;;
18286;SDS011;9269;50.838;12.094;2022-07-22T05:00:30;11.27;;;10.00;;
18286;SDS011;9269;50.838;12.094;2022-07-22T05:02:58;9.80;;;8.90;;
18286;SDS011;9269;50.838;12.094;2022-07-22T05:05:28;11.93;;;10.83;;
18286;SDS011;9269;50.838;12.094;2022-07-22T05:07:57;10.57;;;9.17;;
18286;SDS011;9269;50.838;12.094;2022-07-22T05:10:25;10.80;;;9.33;;
18286;SDS011;9269;50.838;12.094;2022-07-22T05:12:54;12.90;;;10.40;;
18286;SDS011;9269;50.838;12.094;2022-07-22T05:15:23;11.47;;;10.37;;
18286;SDS011;9269;50.838;12.094;2022-07-22T05:17:51;10.57;;;9.47;;
18286;SDS011;9269;50.838;12.094;2022-07-22T05:20:19;10.87;;;9.83;;
18286;SDS011;9269;50.838;12.094;2022-07-22T05:22:49;9.30;;;8.40;;
18286;SDS011;9269;50.838;12.094;2022-07-22T05:25:18;9.80;;;8.87;;
18286;SDS011;9269;50.838;12.094;2022-07-22T05:27:49;9.27;;;8.47;;
18286;SDS011;9269;50.838;12.094;2022-07-22T05:30:17;9.13;;;8.23;;
18286;SDS011;9269;50.838;12.094;2022-07-22T05:32:49;8.67;;;7.87;;
18286;SDS011;9269;50.838;12.094;2022-07-22T05:35:18;8.17;;;7.43;;
18286;SDS011;9269;50.838;12.094;2022-07-22T05:37:47;8.83;;;8.03;;
18286;SDS011;9269;50.838;12.094;2022-07-22T05:40:17;9.47;;;7.80;;
18286;SDS011;9269;50.838;12.094;2022-07-22T05:42:45;8.00;;;7.20;;
18286;SDS011;9269;50.838;12.094;2022-07-22T05:45:13;8.03;;;7.43;;
18286;SDS011;9269;50.838;12.094;2022-07-22T05:47:42;7.57;;;6.90;;
18286;SDS011;9269;50.838;12.094;2022-07-22T05:50:10;7.73;;;6.97;;
18286;SDS011;9269;50.838;12.094;2022-07-22T05:52:39;7.50;;;6.80;;
18286;SDS011;9269;50.838;12.094;2022-07-22T05:55:07;7.67;;;6.97;;
18286;SDS011;9269;50.838;12.094;2022-07-22T05:57:38;7.00;;;6.20;;
18286;SDS011;9269;50.838;12.094;2022-07-22T06:00:07;6.93;;;6.43;;
18286;SDS011;9269;50.838;12.094;2022-07-22T06:02:36;7.07;;;6.43;;
18286;SDS011;9269;50.838;12.094;2022-07-22T06:05:04;6.20;;;5.60;;
18286;SDS011;9269;50.838;12.094;2022-07-22T06:07:33;5.77;;;5.27;;
18286;SDS011;9269;50.838;12.094;2022-07-22T06:10:02;6.00;;;5.40;;
18286;SDS011;9269;50.838;12.094;2022-07-22T06:12:31;5.67;;;5.27;;
18286;SDS011;9269;50.838;12.094;2022-07-22T06:15:01;5.60;;;5.10;;
18286;SDS011;9269;50.838;12.094;2022-07-22T06:17:30;4.90;;;4.47;;
18286;SDS011;9269;50.838;12.094;2022-07-22T06:19:58;4.93;;;4.53;;
18286;SDS011;9269;50.838;12.094;2022-07-22T06:22:27;4.60;;;4.20;;
18286;SDS011;9269;50.838;12.094;2022-07-22T06:24:55;4.53;;;4.13;;
18286;SDS011;9269;50.838;12.094;2022-07-22T06:27:42;4.23;;;3.90;;
18286;SDS011;9269;50.838;12.094;2022-07-22T06:30:13;4.40;;;4.00;;
18286;SDS011;9269;50.838;12.094;2022-07-22T06:32:44;4.33;;;3.93;;
18286;SDS011;9269;50.838;12.094;2022-07-22T06:35:19;4.43;;;4.13;;
18286;SDS011;9269;50.838;12.094;2022-07-22T06:37:47;4.70;;;4.30;;
18286;SDS011;9269;50.838;12.094;2022-07-22T06:40:30;3.90;;;3.60;;
18286;SDS011;9269;50.838;12.094;2022-07-22T06:42:59;4.30;;;4.00;;
18286;SDS011;9269;50.838;12.094;2022-07-22T06:45:29;3.27;;;3.07;;
18286;SDS011;9269;50.838;12.094;2022-07-22T06:47:58;3.57;;;3.33;;
18286;SDS011;9269;50.838;12.094;2022-07-22T06:50:26;3.70;;;3.40;;
18286;SDS011;9269;50.838;12.094;2022-07-22T06:52:55;3.50;;;3.20;;
18286;SDS011;9269;50.838;12.094;2022-07-22T06:55:23;3.87;;;3.57;;
18286;SDS011;9269;50.838;12.094;2022-07-22T06:57:52;4.00;;;3.70;;
18286;SDS011;9269;50.838;12.094;2022-07-22T07:00:20;4.00;;;3.70;;
18286;SDS011;9269;50.838;12.094;2022-07-22T07:02:50;3.90;;;3.60;;
18286;SDS011;9269;50.838;12.094;2022-07-22T07:05:38;4.80;;;4.50;;
18286;SDS011;9269;50.838;12.094;2022-07-22T07:08:08;4.67;;;4.27;;
18286;SDS011;9269;50.838;12.094;2022-07-22T07:10:36;4.30;;;4.00;;
18286;SDS011;9269;50.838;12.094;2022-07-22T07:13:05;5.53;;;5.03;;
18286;SDS011;9269;50.838;12.094;2022-07-22T07:15:34;5.10;;;4.60;;
18286;SDS011;9269;50.838;12.094;2022-07-22T07:18:04;4.90;;;4.50;;
18286;SDS011;9269;50.838;12.094;2022-07-22T07:20:34;4.77;;;4.47;;
18286;SDS011;9269;50.838;12.094;2022-07-22T07:23:04;4.73;;;4.43;;
18286;SDS011;9269;50.838;12.094;2022-07-22T07:25:32;4.83;;;4.47;;
18286;SDS011;9269;50.838;12.094;2022-07-22T07:28:01;4.70;;;4.30;;
18286;SDS011;9269;50.838;12.094;2022-07-22T07:30:31;4.57;;;4.10;;
18286;SDS011;9269;50.838;12.094;2022-07-22T07:33:00;4.20;;;3.90;;
18286;SDS011;9269;50.838;12.094;2022-07-22T07:35:31;4.50;;;4.20;;
18286;SDS011;9269;50.838;12.094;2022-07-22T07:37:59;4.03;;;3.73;;
18286;SDS011;9269;50.838;12.094;2022-07-22T07:40:28;3.90;;;3.60;;
18286;SDS011;9269;50.838;12.094;2022-07-22T07:42:56;3.80;;;3.47;;
18286;SDS011;9269;50.838;12.094;2022-07-22T07:45:29;4.20;;;3.87;;
18286;SDS011;9269;50.838;12.094;2022-07-22T07:47:58;4.30;;;3.90;;
18286;SDS011;9269;50.838;12.094;2022-07-22T07:50:28;4.00;;;3.70;;
18286;SDS011;9269;50.838;12.094;2022-07-22T07:52:58;3.93;;;3.70;;
18286;SDS011;9269;50.838;12.094;2022-07-22T07:55:27;4.13;;;3.87;;
18286;SDS011;9269;50.838;12.094;2022-07-22T07:57:56;4.10;;;3.80;;
18286;SDS011;9269;50.838;12.094;2022-07-22T08:00:26;3.93;;;3.67;;
18286;SDS011;9269;50.838;12.094;2022-07-22T08:02:57;4.33;;;3.93;;
18286;SDS011;9269;50.838;12.094;2022-07-22T08:05:27;4.20;;;4.00;;
18286;SDS011;9269;50.838;12.094;2022-07-22T08:07:57;4.00;;;3.77;;
18286;SDS011;9269;50.838;12.094;2022-07-22T08:10:26;3.80;;;3.60;;
18286;SDS011;9269;50.838;12.094;2022-07-22T08:13:16;4.37;;;4.07;;
18286;SDS011;9269;50.838;12.094;2022-07-22T08:15:44;3.63;;;3.43;;
18286;SDS011;9269;50.838;12.094;2022-07-22T08:18:14;3.63;;;3.33;;
18286;SDS011;9269;50.838;12.094;2022-07-22T08:20:43;3.40;;;3.13;;
18286;SDS011;9269;50.838;12.094;2022-07-22T08:23:14;3.77;;;3.47;;
18286;SDS011;9269;50.838;12.094;2022-07-22T08:25:43;3.90;;;3.60;;
18286;SDS011;9269;50.838;12.094;2022-07-22T08:28:11;3.67;;;3.47;;
18286;SDS011;9269;50.838;12.094;2022-07-22T08:30:40;3.77;;;3.57;;
18286;SDS011;9269;50.838;12.094;2022-07-22T08:33:08;3.67;;;3.37;;
18286;SDS011;9269;50.838;12.094;2022-07-22T08:35:37;4.40;;;4.00;;
18286;SDS011;9269;50.838;12.094;2022-07-22T08:38:05;4.17;;;3.87;;
18286;SDS011;9269;50.838;12.094;2022-07-22T08:40:35;4.00;;;3.70;;
18286;SDS011;9269;50.838;12.094;2022-07-22T08:43:05;4.27;;;3.97;;
18286;SDS011;9269;50.838;12.094;2022-07-22T08:45:33;3.60;;;3.40;;
18286;SDS011;9269;50.838;12.094;2022-07-22T08:48:02;4.17;;;3.87;;
18286;SDS011;9269;50.838;12.094;2022-07-22T08:50:33;4.63;;;4.23;;
18286;SDS011;9269;50.838;12.094;2022-07-22T08:53:02;4.23;;;3.83;;
18286;SDS011;9269;50.838;12.094;2022-07-22T08:55:31;4.03;;;3.73;;
18286;SDS011;9269;50.838;12.094;2022-07-22T08:58:01;4.33;;;3.97;;
18286;SDS011;9269;50.838;12.094;2022-07-22T09:00:29;4.33;;;3.77;;
18286;SDS011;9269;50.838;12.094;2022-07-22T09:02:57;4.17;;;3.87;;
18286;SDS011;9269;50.838;12.094;2022-07-22T09:05:32;3.90;;;3.60;;
18286;SDS011;9269;50.838;12.094;2022-07-22T09:08:11;4.60;;;4.20;;
18286;SDS011;9269;50.838;12.094;2022-07-22T09:10:40;4.10;;;3.70;;
18286;SDS011;9269;50.838;12.094;2022-07-22T09:13:11;3.50;;;3.30;;
18286;SDS011;9269;50.838;12.094;2022-07-22T09:15:45;4.10;;;3.80;;
18286;SDS011;9269;50.838;12.094;2022-07-22T09:18:16;3.90;;;3.60;;
18286;SDS011;9269;50.838;12.094;2022-07-22T09:20:45;3.97;;;3.70;;
18286;SDS011;9269;50.838;12.094;2022-07-22T09:23:14;4.20;;;3.90;;
18286;SDS011;9269;50.838;12.094;2022-07-22T09:25:47;4.10;;;3.80;;
18286;SDS011;9269;50.838;12.094;2022-07-22T09:28:19;4.20;;;3.90;;
18286;SDS011;9269;50.838;12.094;2022-07-22T09:30:51;4.07;;;3.77;;
18286;SDS011;9269;50.838;12.094;2022-07-22T09:33:24;4.03;;;3.73;;
18286;SDS011;9269;50.838;12.094;2022-07-22T09:36:00;4.10;;;3.80;;
18286;SDS011;9269;50.838;12.094;2022-07-22T09:38:31;3.97;;;3.67;;
18286;SDS011;9269;50.838;12.094;2022-07-22T09:41:01;3.80;;;3.50;;
18286;SDS011;9269;50.838;12.094;2022-07-22T09:43:35;4.10;;;3.80;;
18286;SDS011;9269;50.838;12.094;2022-07-22T09:46:04;4.07;;;3.77;;
18286;SDS011;9269;50.838;12.094;2022-07-22T09:48:37;4.33;;;4.03;;
18286;SDS011;9269;50.838;12.094;2022-07-22T09:51:07;4.10;;;3.80;;
18286;SDS011;9269;50.838;12.094;2022-07-22T09:53:36;4.50;;;4.07;;
18286;SDS011;9269;50.838;12.094;2022-07-22T09:56:05;4.20;;;3.90;;
18286;SDS011;9269;50.838;12.094;2022-07-22T09:58:35;3.90;;;3.70;;
18286;SDS011;9269;50.838;12.094;2022-07-22T10:01:07;3.60;;;3.40;;
18286;SDS011;9269;50.838;12.094;2022-07-22T10:03:36;3.37;;;3.17;;
18286;SDS011;9269;50.838;12.094;2022-07-22T10:06:06;4.70;;;3.33;;
18286;SDS011;9269;50.838;12.094;2022-07-22T10:08:36;3.30;;;3.10;;
18286;SDS011;9269;50.838;12.094;2022-07-22T10:11:06;3.93;;;3.40;;
18286;SDS011;9269;50.838;12.094;2022-07-22T10:13:36;3.90;;;3.47;;
18286;SDS011;9269;50.838;12.094;2022-07-22T10:16:08;4.10;;;3.70;;
18286;SDS011;9269;50.838;12.094;2022-07-22T10:18:38;3.73;;;3.53;;
18286;SDS011;9269;50.838;12.094;2022-07-22T10:21:11;4.30;;;4.00;;
18286;SDS011;9269;50.838;12.094;2022-07-22T10:26:48;3.70;;;3.40;;
18286;SDS011;9269;50.838;12.094;2022-07-22T10:29:26;4.17;;;3.50;;
18286;SDS011;9269;50.838;12.094;2022-07-22T10:37:49;3.20;;;3.00;;
18286;SDS011;9269;50.838;12.094;2022-07-22T10:40:22;3.03;;;2.90;;
18286;SDS011;9269;50.838;12.094;2022-07-22T10:43:10;3.80;;;3.50;;
18286;SDS011;9269;50.838;12.094;2022-07-22T10:45:41;3.73;;;3.43;;
18286;SDS011;9269;50.838;12.094;2022-07-22T10:48:14;3.80;;;3.50;;
18286;SDS011;9269;50.838;12.094;2022-07-22T10:50:45;3.77;;;3.43;;
18286;SDS011;9269;50.838;12.094;2022-07-22T10:53:43;3.90;;;3.60;;
18286;SDS011;9269;50.838;12.094;2022-07-22T10:56:15;3.43;;;3.20;;
18286;SDS011;9269;50.838;12.094;2022-07-22T10:58:51;3.93;;;3.73;;
18286;SDS011;9269;50.838;12.094;2022-07-22T11:01:24;3.60;;;3.40;;
18286;SDS011;9269;50.838;12.094;2022-07-22T11:03:54;3.50;;;3.20;;
18286;SDS011;9269;50.838;12.094;2022-07-22T11:06:26;3.60;;;3.40;;
18286;SDS011;9269;50.838;12.094;2022-07-22T11:08:57;3.93;;;3.63;;
18286;SDS011;9269;50.838;12.094;2022-07-22T11:11:31;3.50;;;3.30;;
18286;SDS011;9269;50.838;12.094;2022-07-22T11:14:20;3.83;;;3.53;;
18286;SDS011;9269;50.838;12.094;2022-07-22T11:16:53;3.63;;;3.43;;
18286;SDS011;9269;50.838;12.094;2022-07-22T11:19:25;4.07;;;3.60;;
18286;SDS011;9269;50.838;12.094;2022-07-22T11:21:55;3.97;;;3.60;;
18286;SDS011;9269;50.838;12.094;2022-07-22T11:24:25;4.00;;;3.70;;
18286;SDS011;9269;50.838;12.094;2022-07-22T11:26:54;3.97;;;3.53;;
18286;SDS011;9269;50.838;12.094;2022-07-22T11:29:32;3.93;;;3.63;;
18286;SDS011;9269;50.838;12.094;2022-07-22T11:32:04;3.70;;;3.47;;
18286;SDS011;9269;50.838;12.094;2022-07-22T11:34:36;3.30;;;3.10;;
18286;SDS011;9269;50.838;12.094;2022-07-22T11:37:09;3.90;;;3.70;;
18286;SDS011;9269;50.838;12.094;2022-07-22T11:39:38;3.60;;;3.40;;
18286;SDS011;9269;50.838;12.094;2022-07-22T11:42:07;3.70;;;3.40;;
18286;SDS011;9269;50.838;12.094;2022-07-22T11:44:36;3.60;;;3.40;;
18286;SDS011;9269;50.838;12.094;2022-07-22T11:47:07;3.63;;;3.43;;
18286;SDS011;9269;50.838;12.094;2022-07-22T11:49:38;4.20;;;3.80;;
18286;SDS011;9269;50.838;12.094;2022-07-22T11:52:07;4.43;;;3.97;;
18286;SDS011;9269;50.838;12.094;2022-07-22T11:54:39;4.17;;;3.87;;
18286;SDS011;9269;50.838;12.094;2022-07-22T11:57:08;3.90;;;3.70;;
18286;SDS011;9269;50.838;12.094;2022-07-22T11:59:36;3.97;;;3.67;;
18286;SDS011;9269;50.838;12.094;2022-07-22T12:02:06;3.77;;;3.47;;
18286;SDS011;9269;50.838;12.094;2022-07-22T12:04:41;3.87;;;3.60;;
18286;SDS011;9269;50.838;12.094;2022-07-22T12:07:13;4.33;;;3.70;;
18286;SDS011;9269;50.838;12.094;2022-07-22T12:09:44;4.30;;;3.90;;
18286;SDS011;9269;50.838;12.094;2022-07-22T12:12:12;4.00;;;3.70;;
18286;SDS011;9269;50.838;12.094;2022-07-22T12:14:44;3.97;;;3.67;;
18286;SDS011;9269;50.838;12.094;2022-07-22T12:17:16;4.23;;;3.97;;
18286;SDS011;9269;50.838;12.094;2022-07-22T12:19:44;3.97;;;3.67;;
18286;SDS011;9269;50.838;12.094;2022-07-22T12:22:18;3.87;;;3.67;;
18286;SDS011;9269;50.838;12.094;2022-07-22T12:24:57;3.53;;;3.33;;
18286;SDS011;9269;50.838;12.094;2022-07-22T12:27:26;4.30;;;4.00;;
18286;SDS011;9269;50.838;12.094;2022-07-22T12:29:54;3.90;;;3.60;;
18286;SDS011;9269;50.838;12.094;2022-07-22T12:32:26;4.20;;;3.80;;
18286;SDS011;9269;50.838;12.094;2022-07-22T12:34:56;3.80;;;3.60;;
18286;SDS011;9269;50.838;12.094;2022-07-22T12:37:26;3.83;;;3.53;;
18286;SDS011;9269;50.838;12.094;2022-07-22T12:39:56;4.80;;;3.53;;
18286;SDS011;9269;50.838;12.094;2022-07-22T12:42:27;3.80;;;3.50;;
18286;SDS011;9269;50.838;12.094;2022-07-22T12:45:00;3.90;;;3.60;;
18286;SDS011;9269;50.838;12.094;2022-07-22T12:47:45;4.07;;;3.70;;
18286;SDS011;9269;50.838;12.094;2022-07-22T12:50:22;4.00;;;3.27;;
18286;SDS011;9269;50.838;12.094;2022-07-22T12:52:54;4.60;;;3.73;;
18286;SDS011;9269;50.838;12.094;2022-07-22T12:55:42;4.57;;;3.70;;
18286;SDS011;9269;50.838;12.094;2022-07-22T12:58:11;3.67;;;3.47;;
18286;SDS011;9269;50.838;12.094;2022-07-22T13:00:43;13.97;;;4.30;;
18286;SDS011;9269;50.838;12.094;2022-07-22T13:03:13;10.53;;;4.07;;
18286;SDS011;9269;50.838;12.094;2022-07-22T13:05:42;7.40;;;4.53;;
18286;SDS011;9269;50.838;12.094;2022-07-22T13:49:08;4.40;;;4.10;;
18286;SDS011;9269;50.838;12.094;2022-07-22T13:51:38;4.77;;;4.33;;
18286;SDS011;9269;50.838;12.094;2022-07-22T13:54:09;4.17;;;3.87;;
18286;SDS011;9269;50.838;12.094;2022-07-22T13:56:37;4.40;;;4.10;;
18286;SDS011;9269;50.838;12.094;2022-07-22T13:59:06;4.73;;;4.40;;
18286;SDS011;9269;50.838;12.094;2022-07-22T14:01:34;4.60;;;4.20;;
18286;SDS011;9269;50.838;12.094;2022-07-22T14:04:04;4.23;;;3.83;;
18286;SDS011;9269;50.838;12.094;2022-07-22T14:06:35;4.53;;;4.13;;
18286;SDS011;9269;50.838;12.094;2022-07-22T14:09:04;4.20;;;3.90;;
18286;SDS011;9269;50.838;12.094;2022-07-22T14:11:33;4.10;;;3.80;;
18286;SDS011;9269;50.838;12.094;2022-07-22T14:14:01;4.40;;;4.00;;
18286;SDS011;9269;50.838;12.094;2022-07-22T14:16:29;5.27;;;4.37;;
18286;SDS011;9269;50.838;12.094;2022-07-22T14:19:23;5.00;;;4.60;;
18286;SDS011;9269;50.838;12.094;2022-07-22T14:21:53;5.03;;;4.60;;
18286;SDS011;9269;50.838;12.094;2022-07-22T14:24:21;4.70;;;4.30;;
18286;SDS011;9269;50.838;12.094;2022-07-22T14:26:51;4.70;;;4.30;;
18286;SDS011;9269;50.838;12.094;2022-07-22T14:29:20;4.90;;;4.00;;
18286;SDS011;9269;50.838;12.094;2022-07-22T14:31:48;4.83;;;4.53;;
18286;SDS011;9269;50.838;12.094;2022-07-22T14:34:17;4.67;;;4.30;;
18286;SDS011;9269;50.838;12.094;2022-07-22T14:36:46;4.63;;;4.23;;
18286;SDS011;9269;50.838;12.094;2022-07-22T14:39:17;4.87;;;4.47;;
18286;SDS011;9269;50.838;12.094;2022-07-22T14:43:17;4.13;;;3.83;;
18286;SDS011;9269;50.838;12.094;2022-07-22T14:46:06;4.23;;;3.83;;
18286;SDS011;9269;50.838;12.094;2022-07-22T14:48:36;4.40;;;4.10;;
18286;SDS011;9269;50.838;12.094;2022-07-22T14:51:05;4.57;;;4.10;;
18286;SDS011;9269;50.838;12.094;2022-07-22T14:55:40;4.60;;;4.30;;
18286;SDS011;9269;50.838;12.094;2022-07-22T14:58:08;4.30;;;4.00;;
18286;SDS011;9269;50.838;12.094;2022-07-22T15:00:37;4.73;;;4.33;;
18286;SDS011;9269;50.838;12.094;2022-07-22T15:03:06;4.70;;;4.30;;
18286;SDS011;9269;50.838;12.094;2022-07-22T15:05:34;4.83;;;4.30;;
18286;SDS011;9269;50.838;12.094;2022-07-22T15:08:03;4.57;;;4.17;;
18286;SDS011;9269;50.838;12.094;2022-07-22T15:10:32;5.03;;;4.57;;
18286;SDS011;9269;50.838;12.094;2022-07-22T15:13:02;6.37;;;4.17;;
18286;SDS011;9269;50.838;12.094;2022-07-22T15:15:30;10.10;;;4.80;;
18286;SDS011;9269;50.838;12.094;2022-07-22T15:17:59;14.40;;;5.87;;
18286;SDS011;9269;50.838;12.094;2022-07-22T15:20:28;8.67;;;4.93;;
18286;SDS011;9269;50.838;12.094;2022-07-22T15:22:56;4.23;;;3.93;;
18286;SDS011;9269;50.838;12.094;2022-07-22T15:25:24;4.57;;;4.23;;
18286;SDS011;9269;50.838;12.094;2022-07-22T15:27:53;4.30;;;4.00;;
18286;SDS011;9269;50.838;12.094;2022-07-22T15:30:43;3.90;;;3.60;;
18286;SDS011;9269;50.838;12.094;2022-07-22T15:33:11;3.67;;;3.47;;
18286;SDS011;9269;50.838;12.094;2022-07-22T15:35:45;4.10;;;3.80;;
18286;SDS011;9269;50.838;12.094;2022-07-22T15:38:13;3.90;;;3.60;;
18286;SDS011;9269;50.838;12.094;2022-07-22T15:40:42;4.00;;;3.70;;
18286;SDS011;9269;50.838;12.094;2022-07-22T15:43:10;3.83;;;3.53;;
18286;SDS011;9269;50.838;12.094;2022-07-22T15:45:39;4.87;;;3.90;;
18286;SDS011;9269;50.838;12.094;2022-07-22T15:48:09;4.13;;;3.50;;
18286;SDS011;9269;50.838;12.094;2022-07-22T15:50:37;6.40;;;3.90;;
18286;SDS011;9269;50.838;12.094;2022-07-22T15:53:05;3.80;;;3.50;;
18286;SDS011;9269;50.838;12.094;2022-07-22T15:55:34;5.87;;;3.83;;